sensor_id;sensor_type;location;lat;lon;timestamp;pressure;altitude;pressure_sealevel;temperature;humidity
23118;BME280;11728;50.624;6.014;2023-07-13T00:00:52;98276.53;;;17.49;53.26
23118;BME280;11728;50.624;6.014;2023-07-13T00:06:00;98274.97;;;17.45;53.66
23118;BME280;11728;50.624;6.014;2023-07-13T00:11:02;98277.06;;;17.38;53.96
23118;BME280;11728;50.624;6.014;2023-07-13T00:16:03;98289.78;;;17.33;54.04
23118;BME280;11728;50.624;6.014;2023-07-13T00:21:04;98290.09;;;17.27;54.46
23118;BME280;11728;50.624;6.014;2023-07-13T00:26:09;98297.41;;;17.22;54.39
23118;BME280;11728;50.624;6.014;2023-07-13T00:31:12;98291.84;;;17.28;54.94
23118;BME280;11728;50.624;6.014;2023-07-13T00:36:12;98286.00;;;17.37;54.82
23118;BME280;11728;50.624;6.014;2023-07-13T00:41:13;98290.91;;;17.46;54.59
23118;BME280;11728;50.624;6.014;2023-07-13T00:51:28;98287.75;;;17.38;54.96
23118;BME280;11728;50.624;6.014;2023-07-13T00:56:31;98290.09;;;17.27;54.82
23118;BME280;11728;50.624;6.014;2023-07-13T01:01:34;98296.91;;;17.14;55.16
23118;BME280;11728;50.624;6.014;2023-07-13T01:06:37;98298.41;;;17.03;55.38
23118;BME280;11728;50.624;6.014;2023-07-13T01:11:40;98284.63;;;16.93;55.86
23118;BME280;11728;50.624;6.014;2023-07-13T01:16:42;98283.19;;;16.87;56.05
23118;BME280;11728;50.624;6.014;2023-07-13T01:21:43;98288.00;;;16.79;56.19
23118;BME280;11728;50.624;6.014;2023-07-13T01:26:43;98285.63;;;16.73;56.31
23118;BME280;11728;50.624;6.014;2023-07-13T01:31:44;98288.38;;;16.71;56.36
23118;BME280;11728;50.624;6.014;2023-07-13T01:36:44;98282.13;;;16.72;56.81
23118;BME280;11728;50.624;6.014;2023-07-13T01:41:45;98285.22;;;16.82;57.01
23118;BME280;11728;50.624;6.014;2023-07-13T01:46:45;98291.03;;;16.90;57.01
23118;BME280;11728;50.624;6.014;2023-07-13T01:51:46;98284.56;;;16.95;57.24
23118;BME280;11728;50.624;6.014;2023-07-13T01:56:46;98278.97;;;16.99;57.39
23118;BME280;11728;50.624;6.014;2023-07-13T02:01:47;98285.34;;;16.97;57.91
23118;BME280;11728;50.624;6.014;2023-07-13T02:06:48;98298.16;;;16.89;58.12
23118;BME280;11728;50.624;6.014;2023-07-13T02:11:50;98295.88;;;16.82;58.55
23118;BME280;11728;50.624;6.014;2023-07-13T02:16:50;98297.75;;;16.80;58.81
23118;BME280;11728;50.624;6.014;2023-07-13T02:21:51;98316.72;;;16.74;59.18
23118;BME280;11728;50.624;6.014;2023-07-13T02:26:51;98310.56;;;16.72;59.57
23118;BME280;11728;50.624;6.014;2023-07-13T02:31:52;98307.34;;;16.65;60.19
23118;BME280;11728;50.624;6.014;2023-07-13T02:36:52;98306.84;;;16.57;61.08
23118;BME280;11728;50.624;6.014;2023-07-13T02:41:53;98306.97;;;16.54;61.62
23118;BME280;11728;50.624;6.014;2023-07-13T02:46:53;98306.09;;;16.54;61.84
23118;BME280;11728;50.624;6.014;2023-07-13T02:51:54;98305.31;;;16.52;61.95
23118;BME280;11728;50.624;6.014;2023-07-13T02:56:55;98307.31;;;16.47;62.41
23118;BME280;11728;50.624;6.014;2023-07-13T03:01:55;98305.81;;;16.41;62.66
23118;BME280;11728;50.624;6.014;2023-07-13T03:06:56;98307.81;;;16.36;62.78
23118;BME280;11728;50.624;6.014;2023-07-13T03:12:02;98308.06;;;16.30;63.30
23118;BME280;11728;50.624;6.014;2023-07-13T03:17:05;98305.56;;;16.26;63.99
23118;BME280;11728;50.624;6.014;2023-07-13T03:22:08;98311.91;;;16.23;64.14
23118;BME280;11728;50.624;6.014;2023-07-13T03:27:09;98310.97;;;16.24;64.69
23118;BME280;11728;50.624;6.014;2023-07-13T03:32:13;98304.00;;;16.22;64.86
23118;BME280;11728;50.624;6.014;2023-07-13T03:37:14;98325.31;;;16.22;65.17
23118;BME280;11728;50.624;6.014;2023-07-13T03:42:15;98320.09;;;16.19;66.16
23118;BME280;11728;50.624;6.014;2023-07-13T03:47:16;98324.84;;;16.13;66.63
23118;BME280;11728;50.624;6.014;2023-07-13T03:52:18;98321.28;;;16.14;66.89
23118;BME280;11728;50.624;6.014;2023-07-13T03:57:19;98326.59;;;16.14;67.13
23118;BME280;11728;50.624;6.014;2023-07-13T04:02:20;98324.78;;;16.14;67.36
23118;BME280;11728;50.624;6.014;2023-07-13T04:07:21;98329.19;;;16.15;67.58
23118;BME280;11728;50.624;6.014;2023-07-13T04:12:21;98342.22;;;16.21;67.75
23118;BME280;11728;50.624;6.014;2023-07-13T04:17:22;98333.09;;;16.26;67.80
23118;BME280;11728;50.624;6.014;2023-07-13T04:22:22;98342.66;;;16.32;67.66
23118;BME280;11728;50.624;6.014;2023-07-13T04:27:23;98354.78;;;16.39;67.51
23118;BME280;11728;50.624;6.014;2023-07-13T04:32:23;98344.66;;;16.47;67.41
23118;BME280;11728;50.624;6.014;2023-07-13T04:37:24;98352.22;;;16.56;67.39
23118;BME280;11728;50.624;6.014;2023-07-13T04:42:25;98356.41;;;16.61;67.26
23118;BME280;11728;50.624;6.014;2023-07-13T04:47:25;98362.13;;;16.72;67.23
23118;BME280;11728;50.624;6.014;2023-07-13T04:52:26;98357.03;;;16.86;67.22
23118;BME280;11728;50.624;6.014;2023-07-13T04:57:27;98358.03;;;17.02;67.09
23118;BME280;11728;50.624;6.014;2023-07-13T05:02:28;98363.16;;;17.25;66.51
23118;BME280;11728;50.624;6.014;2023-07-13T05:07:28;98366.25;;;17.53;65.57
23118;BME280;11728;50.624;6.014;2023-07-13T05:12:29;98358.34;;;17.68;65.57
23118;BME280;11728;50.624;6.014;2023-07-13T05:17:30;98361.41;;;17.77;65.21
23118;BME280;11728;50.624;6.014;2023-07-13T05:22:30;98372.88;;;17.79;65.36
23118;BME280;11728;50.624;6.014;2023-07-13T05:27:31;98378.00;;;17.84;65.25
23118;BME280;11728;50.624;6.014;2023-07-13T05:32:32;98391.13;;;17.88;65.48
23118;BME280;11728;50.624;6.014;2023-07-13T05:37:33;98383.59;;;17.96;65.24
23118;BME280;11728;50.624;6.014;2023-07-13T05:42:34;98394.97;;;17.83;66.09
23118;BME280;11728;50.624;6.014;2023-07-13T05:47:34;98406.94;;;17.93;65.89
23118;BME280;11728;50.624;6.014;2023-07-13T05:52:35;98398.28;;;17.88;66.79
23118;BME280;11728;50.624;6.014;2023-07-13T05:57:36;98403.94;;;17.82;67.45
23118;BME280;11728;50.624;6.014;2023-07-13T06:02:36;98416.53;;;17.97;67.53
23118;BME280;11728;50.624;6.014;2023-07-13T06:07:37;98414.69;;;18.33;66.96
23118;BME280;11728;50.624;6.014;2023-07-13T06:12:41;98422.72;;;18.50;66.38
23118;BME280;11728;50.624;6.014;2023-07-13T06:17:41;98431.69;;;18.49;66.48
23118;BME280;11728;50.624;6.014;2023-07-13T06:22:42;98439.41;;;18.38;66.28
23118;BME280;11728;50.624;6.014;2023-07-13T06:27:43;98432.81;;;18.45;66.24
23118;BME280;11728;50.624;6.014;2023-07-13T06:32:43;98441.59;;;18.63;65.60
23118;BME280;11728;50.624;6.014;2023-07-13T06:37:44;98436.34;;;18.94;64.76
23118;BME280;11728;50.624;6.014;2023-07-13T06:42:44;98443.31;;;19.31;63.92
23118;BME280;11728;50.624;6.014;2023-07-13T06:47:45;98443.94;;;19.82;62.70
23118;BME280;11728;50.624;6.014;2023-07-13T06:52:45;98439.22;;;20.31;61.84
23118;BME280;11728;50.624;6.014;2023-07-13T06:57:45;98444.31;;;20.36;60.17
23118;BME280;11728;50.624;6.014;2023-07-13T07:02:46;98446.00;;;20.52;59.93
23118;BME280;11728;50.624;6.014;2023-07-13T07:07:51;98446.13;;;21.22;59.09
23118;BME280;11728;50.624;6.014;2023-07-13T07:12:52;98442.69;;;21.62;57.46
23118;BME280;11728;50.624;6.014;2023-07-13T07:17:53;98449.50;;;22.07;56.13
23118;BME280;11728;50.624;6.014;2023-07-13T07:22:53;98461.69;;;22.39;54.74
23118;BME280;11728;50.624;6.014;2023-07-13T07:27:54;98457.44;;;22.49;53.51
23118;BME280;11728;50.624;6.014;2023-07-13T07:32:54;98462.28;;;22.44;53.26
23118;BME280;11728;50.624;6.014;2023-07-13T07:37:55;98465.16;;;22.41;53.04
23118;BME280;11728;50.624;6.014;2023-07-13T07:42:55;98473.88;;;22.71;52.69
23118;BME280;11728;50.624;6.014;2023-07-13T07:47:56;98465.94;;;23.56;50.89
23118;BME280;11728;50.624;6.014;2023-07-13T07:52:59;98469.00;;;24.36;48.89
23118;BME280;11728;50.624;6.014;2023-07-13T07:57:59;98470.22;;;25.13;47.37
23118;BME280;11728;50.624;6.014;2023-07-13T08:03:00;98464.53;;;25.83;46.27
23118;BME280;11728;50.624;6.014;2023-07-13T08:08:00;98459.53;;;26.43;44.61
23118;BME280;11728;50.624;6.014;2023-07-13T08:13:01;98459.53;;;26.32;43.91
23118;BME280;11728;50.624;6.014;2023-07-13T08:18:03;98453.75;;;26.67;42.91
23118;BME280;11728;50.624;6.014;2023-07-13T08:23:03;98453.22;;;27.66;41.42
23118;BME280;11728;50.624;6.014;2023-07-13T08:28:04;98458.44;;;27.17;40.77
23118;BME280;11728;50.624;6.014;2023-07-13T08:33:05;98454.25;;;27.74;40.73
23118;BME280;11728;50.624;6.014;2023-07-13T08:38:05;98445.03;;;28.44;39.47
23118;BME280;11728;50.624;6.014;2023-07-13T08:43:11;98437.88;;;29.28;38.18
23118;BME280;11728;50.624;6.014;2023-07-13T08:48:22;98452.78;;;29.43;37.62
23118;BME280;11728;50.624;6.014;2023-07-13T08:53:33;98455.06;;;29.48;37.53
23118;BME280;11728;50.624;6.014;2023-07-13T08:58:36;98448.81;;;29.38;36.56
23118;BME280;11728;50.624;6.014;2023-07-13T09:03:52;98448.13;;;28.79;36.88
23118;BME280;11728;50.624;6.014;2023-07-13T09:09:07;98447.25;;;28.88;37.55
23118;BME280;11728;50.624;6.014;2023-07-13T09:19:38;98446.09;;;29.38;36.27
23118;BME280;11728;50.624;6.014;2023-07-13T09:24:52;98439.25;;;28.86;36.56
23118;BME280;11728;50.624;6.014;2023-07-13T09:35:20;98437.66;;;28.93;36.30
23118;BME280;11728;50.624;6.014;2023-07-13T09:40:32;98438.63;;;29.76;34.51
23118;BME280;11728;50.624;6.014;2023-07-13T09:45:36;98439.81;;;28.90;35.47
23118;BME280;11728;50.624;6.014;2023-07-13T09:50:37;98439.66;;;29.01;35.90
23118;BME280;11728;50.624;6.014;2023-07-13T09:55:39;98443.38;;;28.81;35.61
23118;BME280;11728;50.624;6.014;2023-07-13T10:00:40;98438.81;;;29.74;34.46
23118;BME280;11728;50.624;6.014;2023-07-13T10:05:43;98440.81;;;31.15;32.38
23118;BME280;11728;50.624;6.014;2023-07-13T10:10:45;98448.16;;;31.39;31.56
23118;BME280;11728;50.624;6.014;2023-07-13T10:15:46;98445.25;;;32.17;30.57
23118;BME280;11728;50.624;6.014;2023-07-13T10:20:46;98458.22;;;33.13;29.29
23118;BME280;11728;50.624;6.014;2023-07-13T10:25:47;98466.22;;;31.83;29.93
23118;BME280;11728;50.624;6.014;2023-07-13T10:30:52;98466.69;;;29.95;31.41
23118;BME280;11728;50.624;6.014;2023-07-13T10:36:14;98469.25;;;28.66;33.44
23118;BME280;11728;50.624;6.014;2023-07-13T10:41:19;98474.38;;;27.72;34.54
23118;BME280;11728;50.624;6.014;2023-07-13T10:46:26;98482.91;;;27.47;35.50
23118;BME280;11728;50.624;6.014;2023-07-13T10:51:28;98474.47;;;27.20;35.34
23118;BME280;11728;50.624;6.014;2023-07-13T10:56:30;98493.19;;;27.03;35.89
23118;BME280;11728;50.624;6.014;2023-07-13T11:01:51;98501.47;;;26.90;36.89
23118;BME280;11728;50.624;6.014;2023-07-13T11:06:57;98495.31;;;26.88;37.03
23118;BME280;11728;50.624;6.014;2023-07-13T11:12:08;98497.97;;;27.51;36.51
23118;BME280;11728;50.624;6.014;2023-07-13T11:17:53;98489.25;;;27.98;35.96
23118;BME280;11728;50.624;6.014;2023-07-13T11:23:15;98487.13;;;28.10;35.39
23118;BME280;11728;50.624;6.014;2023-07-13T11:28:22;98486.06;;;27.93;35.67
23118;BME280;11728;50.624;6.014;2023-07-13T11:33:29;98496.91;;;27.63;36.11
23118;BME280;11728;50.624;6.014;2023-07-13T11:38:38;98484.66;;;27.48;35.93
23118;BME280;11728;50.624;6.014;2023-07-13T11:43:39;98490.81;;;27.29;36.34
23118;BME280;11728;50.624;6.014;2023-07-13T11:48:39;98492.94;;;27.26;35.96
23118;BME280;11728;50.624;6.014;2023-07-13T11:53:45;98495.00;;;26.82;36.01
23118;BME280;11728;50.624;6.014;2023-07-13T11:58:51;98492.47;;;26.58;36.43
23118;BME280;11728;50.624;6.014;2023-07-13T12:03:53;98499.91;;;26.35;36.96
23118;BME280;11728;50.624;6.014;2023-07-13T12:09:02;98496.00;;;26.39;37.17
23118;BME280;11728;50.624;6.014;2023-07-13T12:14:03;98493.88;;;26.42;37.17
23118;BME280;11728;50.624;6.014;2023-07-13T12:19:16;98497.94;;;26.47;37.50
23118;BME280;11728;50.624;6.014;2023-07-13T12:24:20;98502.81;;;26.64;36.70
23118;BME280;11728;50.624;6.014;2023-07-13T12:29:22;98500.59;;;26.69;36.78
23118;BME280;11728;50.624;6.014;2023-07-13T12:34:24;98504.25;;;26.79;36.43
23118;BME280;11728;50.624;6.014;2023-07-13T12:39:37;98496.38;;;27.28;35.85
23118;BME280;11728;50.624;6.014;2023-07-13T12:44:41;98500.69;;;28.31;34.66
23118;BME280;11728;50.624;6.014;2023-07-13T12:49:48;98498.91;;;29.26;33.45
23118;BME280;11728;50.624;6.014;2023-07-13T12:54:57;98497.00;;;28.11;34.48
23118;BME280;11728;50.624;6.014;2023-07-13T12:59:58;98503.00;;;27.76;35.62
23118;BME280;11728;50.624;6.014;2023-07-13T13:04:59;98495.81;;;29.11;33.09
23118;BME280;11728;50.624;6.014;2023-07-13T13:10:00;98494.06;;;29.20;33.22
23118;BME280;11728;50.624;6.014;2023-07-13T13:15:00;98493.44;;;30.36;31.62
23118;BME280;11728;50.624;6.014;2023-07-13T13:20:01;98487.06;;;30.54;30.17
23118;BME280;11728;50.624;6.014;2023-07-13T13:25:01;98484.88;;;30.31;30.54
23118;BME280;11728;50.624;6.014;2023-07-13T13:30:02;98478.53;;;30.40;30.53
23118;BME280;11728;50.624;6.014;2023-07-13T13:35:03;98478.31;;;29.88;30.79
23118;BME280;11728;50.624;6.014;2023-07-13T13:40:14;98479.69;;;29.56;32.09
23118;BME280;11728;50.624;6.014;2023-07-13T13:45:15;98466.56;;;29.42;32.77
23118;BME280;11728;50.624;6.014;2023-07-13T13:50:21;98463.41;;;29.37;32.51
23118;BME280;11728;50.624;6.014;2023-07-13T13:55:22;98455.69;;;29.23;32.63
23118;BME280;11728;50.624;6.014;2023-07-13T14:00:24;98459.13;;;29.06;32.54
23118;BME280;11728;50.624;6.014;2023-07-13T14:05:25;98454.25;;;29.19;32.58
23118;BME280;11728;50.624;6.014;2023-07-13T14:10:27;98449.97;;;28.97;32.29
23118;BME280;11728;50.624;6.014;2023-07-13T14:15:29;98458.94;;;28.70;32.53
23118;BME280;11728;50.624;6.014;2023-07-13T14:20:34;98449.41;;;28.84;32.70
23118;BME280;11728;50.624;6.014;2023-07-13T14:25:35;98457.69;;;28.92;32.56
23118;BME280;11728;50.624;6.014;2023-07-13T14:30:35;98455.13;;;28.91;32.86
23118;BME280;11728;50.624;6.014;2023-07-13T14:35:36;98463.69;;;28.77;32.59
23118;BME280;11728;50.624;6.014;2023-07-13T14:40:38;98465.56;;;28.18;33.13
23118;BME280;11728;50.624;6.014;2023-07-13T14:45:41;98456.78;;;27.66;34.18
23118;BME280;11728;50.624;6.014;2023-07-13T14:50:42;98469.44;;;27.36;34.80
23118;BME280;11728;50.624;6.014;2023-07-13T14:55:42;98473.53;;;27.51;34.48
23118;BME280;11728;50.624;6.014;2023-07-13T15:00:43;98471.13;;;27.78;34.26
23118;BME280;11728;50.624;6.014;2023-07-13T15:05:43;98465.81;;;27.67;34.88
23118;BME280;11728;50.624;6.014;2023-07-13T15:10:44;98467.13;;;27.72;34.33
23118;BME280;11728;50.624;6.014;2023-07-13T15:15:47;98469.78;;;27.22;35.37
23118;BME280;11728;50.624;6.014;2023-07-13T15:20:49;98469.25;;;27.08;35.75
23118;BME280;11728;50.624;6.014;2023-07-13T15:25:50;98460.47;;;26.52;36.09
23118;BME280;11728;50.624;6.014;2023-07-13T15:30:51;98469.88;;;26.27;37.06
23118;BME280;11728;50.624;6.014;2023-07-13T15:35:52;98473.31;;;26.29;37.00
23118;BME280;11728;50.624;6.014;2023-07-13T15:40:55;98465.81;;;26.21;37.73
23118;BME280;11728;50.624;6.014;2023-07-13T15:45:56;98473.31;;;26.29;38.36
23118;BME280;11728;50.624;6.014;2023-07-13T15:51:01;98467.50;;;26.33;38.72
23118;BME280;11728;50.624;6.014;2023-07-13T15:56:32;98466.81;;;26.31;39.29
23118;BME280;11728;50.624;6.014;2023-07-13T16:01:32;98468.41;;;26.23;39.80
23118;BME280;11728;50.624;6.014;2023-07-13T16:06:35;98467.22;;;25.94;40.15
23118;BME280;11728;50.624;6.014;2023-07-13T16:11:38;98472.59;;;25.50;40.81
23118;BME280;11728;50.624;6.014;2023-07-13T16:16:38;98482.19;;;25.32;41.83
23118;BME280;11728;50.624;6.014;2023-07-13T16:21:44;98486.59;;;25.33;42.24
23118;BME280;11728;50.624;6.014;2023-07-13T16:26:46;98489.56;;;25.41;42.15
23118;BME280;11728;50.624;6.014;2023-07-13T16:32:00;98492.03;;;25.55;42.88
23118;BME280;11728;50.624;6.014;2023-07-13T16:37:09;98502.38;;;25.72;42.36
23118;BME280;11728;50.624;6.014;2023-07-13T16:42:12;98487.28;;;26.02;41.88
23118;BME280;11728;50.624;6.014;2023-07-13T16:47:14;98484.53;;;26.46;41.43
23118;BME280;11728;50.624;6.014;2023-07-13T16:52:17;98481.38;;;26.61;40.54
23118;BME280;11728;50.624;6.014;2023-07-13T16:57:26;98486.13;;;26.48;40.79
23118;BME280;11728;50.624;6.014;2023-07-13T17:02:35;98488.94;;;26.47;41.05
23118;BME280;11728;50.624;6.014;2023-07-13T17:07:36;98494.03;;;26.41;41.41
23118;BME280;11728;50.624;6.014;2023-07-13T17:12:37;98500.19;;;26.10;41.32
23118;BME280;11728;50.624;6.014;2023-07-13T17:17:38;98490.75;;;25.93;41.36
23118;BME280;11728;50.624;6.014;2023-07-13T17:22:43;98495.81;;;25.76;41.65
23118;BME280;11728;50.624;6.014;2023-07-13T17:27:45;98493.63;;;25.47;42.21
23118;BME280;11728;50.624;6.014;2023-07-13T17:32:48;98493.19;;;25.18;42.35
23118;BME280;11728;50.624;6.014;2023-07-13T17:37:51;98489.69;;;24.94;43.26
23118;BME280;11728;50.624;6.014;2023-07-13T17:42:52;98492.34;;;24.83;43.91
23118;BME280;11728;50.624;6.014;2023-07-13T17:47:57;98494.38;;;24.69;44.74
23118;BME280;11728;50.624;6.014;2023-07-13T17:52:59;98486.34;;;24.57;44.75
23118;BME280;11728;50.624;6.014;2023-07-13T17:58:02;98485.78;;;24.52;45.49
23118;BME280;11728;50.624;6.014;2023-07-13T18:15:36;98492.56;;;23.98;46.99
23118;BME280;11728;50.624;6.014;2023-07-13T18:20:39;98496.59;;;23.80;48.10
23118;BME280;11728;50.624;6.014;2023-07-13T18:25:45;98492.06;;;23.68;48.69
23118;BME280;11728;50.624;6.014;2023-07-13T18:30:52;98497.13;;;23.60;49.47
23118;BME280;11728;50.624;6.014;2023-07-13T18:35:53;98501.56;;;23.49;49.69
23118;BME280;11728;50.624;6.014;2023-07-13T18:40:55;98503.41;;;23.36;49.67
23118;BME280;11728;50.624;6.014;2023-07-13T18:46:00;98502.75;;;23.20;50.56
23118;BME280;11728;50.624;6.014;2023-07-13T18:51:01;98498.53;;;23.04;50.77
23118;BME280;11728;50.624;6.014;2023-07-13T18:56:02;98507.53;;;22.90;50.60
23118;BME280;11728;50.624;6.014;2023-07-13T19:01:12;98500.59;;;22.74;50.89
23118;BME280;11728;50.624;6.014;2023-07-13T19:06:16;98507.97;;;22.58;51.23
23118;BME280;11728;50.624;6.014;2023-07-13T19:11:19;98497.56;;;22.40;51.48
23118;BME280;11728;50.624;6.014;2023-07-13T19:16:19;98505.75;;;22.24;51.86
23118;BME280;11728;50.624;6.014;2023-07-13T19:21:23;98511.28;;;22.09;52.06
23118;BME280;11728;50.624;6.014;2023-07-13T19:26:31;98515.25;;;21.89;53.18
23118;BME280;11728;50.624;6.014;2023-07-13T19:31:36;98510.69;;;21.64;54.41
23118;BME280;11728;50.624;6.014;2023-07-13T19:36:37;98515.31;;;21.46;54.98
23118;BME280;11728;50.624;6.014;2023-07-13T19:41:39;98521.59;;;21.33;55.32
23118;BME280;11728;50.624;6.014;2023-07-13T19:46:39;98515.13;;;21.21;55.76
23118;BME280;11728;50.624;6.014;2023-07-13T19:51:40;98526.53;;;21.11;56.09
23118;BME280;11728;50.624;6.014;2023-07-13T19:56:41;98524.97;;;20.93;56.87
23118;BME280;11728;50.624;6.014;2023-07-13T20:01:42;98530.28;;;20.79;57.44
23118;BME280;11728;50.624;6.014;2023-07-13T20:06:44;98525.88;;;20.63;57.96
23118;BME280;11728;50.624;6.014;2023-07-13T20:11:44;98541.06;;;20.48;58.72
23118;BME280;11728;50.624;6.014;2023-07-13T20:16:46;98537.94;;;20.40;59.03
23118;BME280;11728;50.624;6.014;2023-07-13T20:21:47;98539.94;;;20.37;59.11
23118;BME280;11728;50.624;6.014;2023-07-13T20:26:47;98545.31;;;20.37;59.17
23118;BME280;11728;50.624;6.014;2023-07-13T20:31:48;98544.09;;;20.42;58.95
23118;BME280;11728;50.624;6.014;2023-07-13T20:36:50;98540.28;;;20.46;58.67
23118;BME280;11728;50.624;6.014;2023-07-13T20:41:51;98538.38;;;20.48;58.47
23118;BME280;11728;50.624;6.014;2023-07-13T20:46:52;98545.94;;;20.42;58.28
23118;BME280;11728;50.624;6.014;2023-07-13T20:51:52;98540.47;;;20.43;58.50
23118;BME280;11728;50.624;6.014;2023-07-13T20:56:53;98545.47;;;20.49;57.93
23118;BME280;11728;50.624;6.014;2023-07-13T21:01:57;98553.25;;;20.54;57.14
23118;BME280;11728;50.624;6.014;2023-07-13T21:06:58;98550.00;;;20.49;56.80
23118;BME280;11728;50.624;6.014;2023-07-13T21:11:58;98551.00;;;20.46;56.61
23118;BME280;11728;50.624;6.014;2023-07-13T21:16:59;98555.09;;;20.53;56.82
23118;BME280;11728;50.624;6.014;2023-07-13T21:21:59;98546.69;;;20.59;56.27
23118;BME280;11728;50.624;6.014;2023-07-13T21:27:00;98554.78;;;20.58;56.46
23118;BME280;11728;50.624;6.014;2023-07-13T21:32:03;98557.06;;;20.65;56.55
23118;BME280;11728;50.624;6.014;2023-07-13T21:37:04;98565.69;;;20.70;56.36
23118;BME280;11728;50.624;6.014;2023-07-13T21:42:05;98560.31;;;20.70;56.42
23118;BME280;11728;50.624;6.014;2023-07-13T21:47:07;98555.16;;;20.67;56.12
23118;BME280;11728;50.624;6.014;2023-07-13T21:52:14;98561.63;;;20.63;56.25
23118;BME280;11728;50.624;6.014;2023-07-13T21:57:16;98561.84;;;20.60;56.21
23118;BME280;11728;50.624;6.014;2023-07-13T22:02:16;98549.38;;;20.59;56.32
23118;BME280;11728;50.624;6.014;2023-07-13T22:07:17;98559.31;;;20.57;55.75
23118;BME280;11728;50.624;6.014;2023-07-13T22:12:18;98555.47;;;20.61;56.01
23118;BME280;11728;50.624;6.014;2023-07-13T22:17:18;98569.88;;;20.60;56.73
23118;BME280;11728;50.624;6.014;2023-07-13T22:22:19;98557.00;;;20.51;56.93
23118;BME280;11728;50.624;6.014;2023-07-13T22:27:20;98564.44;;;20.46;57.59
23118;BME280;11728;50.624;6.014;2023-07-13T22:32:21;98554.84;;;20.42;57.33
23118;BME280;11728;50.624;6.014;2023-07-13T22:37:21;98560.56;;;20.36;56.99
23118;BME280;11728;50.624;6.014;2023-07-13T22:42:22;98555.56;;;20.30;57.12
23118;BME280;11728;50.624;6.014;2023-07-13T22:47:22;98554.50;;;20.17;57.44
23118;BME280;11728;50.624;6.014;2023-07-13T22:52:23;98558.66;;;20.08;58.29
23118;BME280;11728;50.624;6.014;2023-07-13T22:57:23;98557.09;;;20.04;58.13
23118;BME280;11728;50.624;6.014;2023-07-13T23:02:25;98560.56;;;20.06;57.89
23118;BME280;11728;50.624;6.014;2023-07-13T23:07:25;98549.84;;;20.06;57.56
23118;BME280;11728;50.624;6.014;2023-07-13T23:12:26;98548.78;;;20.08;57.41
23118;BME280;11728;50.624;6.014;2023-07-13T23:17:30;98544.22;;;20.10;57.33
23118;BME280;11728;50.624;6.014;2023-07-13T23:22:31;98545.50;;;20.18;57.59
23118;BME280;11728;50.624;6.014;2023-07-13T23:27:31;98537.38;;;20.20;57.56
23118;BME280;11728;50.624;6.014;2023-07-13T23:32:32;98550.00;;;20.18;58.05
23118;BME280;11728;50.624;6.014;2023-07-13T23:37:32;98546.63;;;20.14;58.36
23118;BME280;11728;50.624;6.014;2023-07-13T23:42:33;98543.31;;;20.09;58.55
23118;BME280;11728;50.624;6.014;2023-07-13T23:47:36;98538.88;;;19.93;58.64
23118;BME280;11728;50.624;6.014;2023-07-13T23:52:36;98542.66;;;19.74;59.11
23118;BME280;11728;50.624;6.014;2023-07-13T23:57:37;98544.91;;;19.66;59.48
